createdAt,value
2023-11-05T00:00:25.601Z,87.5
2023-11-05T00:01:31.871Z,86
2023-11-05T00:02:38.157Z,87
2023-11-05T00:03:44.419Z,86.5
2023-11-05T00:04:50.696Z,86.5
2023-11-05T00:05:56.977Z,86
2023-11-05T00:07:03.243Z,85.5
2023-11-05T00:08:09.512Z,86
2023-11-05T00:09:15.783Z,85.5
2023-11-05T00:10:22.060Z,85.5
2023-11-05T00:11:28.328Z,86.5
2023-11-05T00:12:34.600Z,86
2023-11-05T00:13:40.866Z,86
2023-11-05T00:14:47.141Z,86.5
2023-11-05T00:15:52.438Z,86
2023-11-05T00:16:58.709Z,86
2023-11-05T00:18:05.005Z,87
2023-11-05T00:19:11.248Z,86
2023-11-05T00:20:17.538Z,86.5
2023-11-05T00:21:23.799Z,87
2023-11-05T00:22:30.060Z,86.5
2023-11-05T00:23:36.437Z,86.5
2023-11-05T00:24:42.611Z,86.5
2023-11-05T00:25:48.876Z,86
2023-11-05T00:26:55.181Z,86.5
2023-11-05T00:28:01.431Z,86.5
2023-11-05T00:29:07.690Z,86.5
2023-11-05T00:30:13.962Z,86.5
2023-11-05T00:31:19.256Z,86.5
2023-11-05T00:32:25.533Z,87
2023-11-05T00:33:31.809Z,87
2023-11-05T00:34:38.066Z,87
2023-11-05T00:35:44.402Z,86.5
2023-11-05T00:36:50.635Z,86.5
2023-11-05T00:37:56.906Z,86.5
2023-11-05T00:39:03.143Z,86.5
2023-11-05T00:40:09.440Z,87
2023-11-05T00:41:15.724Z,87
2023-11-05T00:42:22.029Z,86.5
2023-11-05T00:43:28.255Z,86.5
2023-11-05T00:44:34.514Z,86.5
2023-11-05T00:45:40.789Z,86
2023-11-05T00:46:47.063Z,86.5
2023-11-05T00:47:53.333Z,86.5
2023-11-05T00:48:59.627Z,86.5
2023-11-05T00:50:05.888Z,87
2023-11-05T00:51:12.146Z,87.5
2023-11-05T00:52:18.434Z,87.5
2023-11-05T00:53:24.701Z,88
2023-11-05T00:54:31.038Z,87.5
2023-11-05T00:55:37.243Z,87.5
2023-11-05T00:56:43.514Z,87.5
2023-11-05T00:57:49.791Z,87.5
2023-11-05T00:58:55.075Z,88
2023-11-05T01:00:01.348Z,87.5
2023-11-05T01:01:07.625Z,87.5
2023-11-05T01:02:13.982Z,87.5
2023-11-05T01:03:20.170Z,88
2023-11-05T01:04:26.443Z,88
2023-11-05T01:05:32.716Z,88
2023-11-05T01:06:39.036Z,88.5
2023-11-05T01:07:45.302Z,89
2023-11-05T01:08:51.539Z,89
2023-11-05T01:09:57.802Z,88.5
2023-11-05T01:11:04.072Z,89
2023-11-05T01:12:10.407Z,89.5
2023-11-05T01:13:16.631Z,89.5
2023-11-05T01:14:22.891Z,89.5
2023-11-05T01:15:28.183Z,89.5
2023-11-05T01:16:34.445Z,89.5
2023-11-05T01:17:40.754Z,89.5
2023-11-05T01:18:47.384Z,90
2023-11-05T01:19:53.261Z,90
2023-11-05T01:20:59.569Z,90
2023-11-05T01:22:05.800Z,90
2023-11-05T01:23:12.080Z,90
2023-11-05T01:24:18.388Z,90
2023-11-05T01:25:24.627Z,90
2023-11-05T01:26:30.901Z,90
2023-11-05T01:27:37.175Z,90
2023-11-05T01:28:43.478Z,90
2023-11-05T01:29:49.739Z,90.5
2023-11-05T01:30:56.102Z,90.5
2023-11-05T01:32:01.297Z,90.5
2023-11-05T01:33:07.546Z,90.5
2023-11-05T01:34:13.818Z,91
2023-11-05T01:35:20.080Z,91
2023-11-05T01:36:26.367Z,91
2023-11-05T01:37:32.638Z,91.5
2023-11-05T01:38:38.902Z,91
2023-11-05T01:39:45.249Z,91.5
2023-11-05T01:40:51.449Z,91.5
2023-11-05T01:41:57.732Z,91.5
2023-11-05T01:43:03.983Z,92
2023-11-05T01:44:10.324Z,91.5
2023-11-05T01:45:16.541Z,92
2023-11-05T01:46:22.812Z,92
2023-11-05T01:47:29.086Z,92
2023-11-05T01:48:35.370Z,92
2023-11-05T01:49:41.640Z,92
2023-11-05T01:50:46.919Z,92
2023-11-05T01:51:53.190Z,92
2023-11-05T01:52:59.465Z,92
2023-11-05T01:54:05.728Z,91.5
2023-11-05T01:55:11.999Z,91.5
2023-11-05T01:56:18.263Z,91.5
2023-11-05T01:57:24.533Z,91.5
2023-11-05T01:58:30.813Z,91.5
2023-11-05T01:59:37.089Z,91.5
2023-11-05T02:00:43.363Z,91.5
2023-11-05T02:01:49.639Z,91.5
2023-11-05T02:02:55.904Z,91
2023-11-05T02:04:02.182Z,91.5
2023-11-05T02:05:07.468Z,91.5
2023-11-05T02:06:13.767Z,91
2023-11-05T02:07:20.014Z,91.5
2023-11-05T02:08:26.296Z,91.5
2023-11-05T02:09:32.556Z,91.5
2023-11-05T02:10:38.823Z,91.5
2023-11-05T02:11:45.126Z,91.5
2023-11-05T02:12:51.371Z,91.5
2023-11-05T02:13:57.658Z,91.5
2023-11-05T02:15:03.921Z,91.5
2023-11-05T02:16:10.189Z,91.5
2023-11-05T02:17:16.490Z,91.5
2023-11-05T02:18:22.735Z,92
2023-11-05T02:19:28.023Z,91.5
2023-11-05T02:20:34.292Z,92
2023-11-05T02:21:40.556Z,91.5
2023-11-05T02:22:46.830Z,91.5
2023-11-05T02:23:53.111Z,91.5
2023-11-05T02:24:59.379Z,91.5
2023-11-05T02:26:05.649Z,91.5
2023-11-05T02:27:11.927Z,91.5
2023-11-05T02:28:18.201Z,91
2023-11-05T02:29:23.487Z,91
2023-11-05T02:30:28.832Z,91
2023-11-05T02:31:35.061Z,91
2023-11-05T02:32:41.334Z,91
2023-11-05T02:33:47.613Z,91
2023-11-05T02:34:53.900Z,91
2023-11-05T02:36:00.140Z,91
2023-11-05T02:37:06.414Z,91
2023-11-05T02:38:12.692Z,91
2023-11-05T02:39:18.969Z,91.5
2023-11-05T02:40:25.238Z,91.5
2023-11-05T02:41:31.500Z,92
2023-11-05T02:42:37.765Z,92
2023-11-05T02:43:44.057Z,92
2023-11-05T02:44:49.382Z,92.5
2023-11-05T02:45:55.622Z,92.5
2023-11-05T02:47:01.887Z,92.5
2023-11-05T02:48:08.167Z,92.5
2023-11-05T02:49:14.424Z,93
2023-11-05T02:50:20.709Z,93
2023-11-05T02:51:26.970Z,93
2023-11-05T02:52:33.248Z,93
2023-11-05T02:53:39.525Z,93
2023-11-05T02:54:45.811Z,93.5
2023-11-05T02:55:52.135Z,93.5
2023-11-05T02:56:58.329Z,93.5
2023-11-05T02:58:04.611Z,93.5
2023-11-05T02:59:09.901Z,93.5
2023-11-05T03:00:16.176Z,93.5
2023-11-05T03:01:22.437Z,93.5
2023-11-05T03:02:28.729Z,94
2023-11-05T03:03:35.001Z,94
2023-11-05T03:04:41.249Z,94
2023-11-05T03:05:47.531Z,94
2023-11-05T03:06:53.808Z,94
2023-11-05T03:08:00.076Z,94
2023-11-05T03:09:06.356Z,94
2023-11-05T03:10:12.632Z,94
2023-11-05T03:11:18.906Z,94
2023-11-05T03:12:25.162Z,94
2023-11-05T03:13:30.457Z,94
2023-11-05T03:14:36.725Z,94
2023-11-05T03:15:42.997Z,94
2023-11-05T03:16:49.286Z,94
2023-11-05T03:17:55.539Z,94
2023-11-05T03:19:02.049Z,94
2023-11-05T03:20:08.073Z,94
2023-11-05T03:21:14.365Z,94
2023-11-05T03:22:20.628Z,94
2023-11-05T03:23:26.914Z,94
2023-11-05T03:24:33.211Z,94
2023-11-05T03:25:39.450Z,94
2023-11-05T03:26:45.715Z,94
2023-11-05T03:27:51.006Z,94
2023-11-05T03:28:57.323Z,94
2023-11-05T03:30:03.537Z,94
2023-11-05T03:31:09.818Z,94
2023-11-05T03:32:16.087Z,94
2023-11-05T03:33:22.365Z,94
2023-11-05T03:34:28.636Z,94
2023-11-05T03:35:34.917Z,94
2023-11-05T03:36:41.187Z,94
2023-11-05T03:37:47.475Z,93.5
2023-11-05T03:38:53.739Z,94
2023-11-05T03:40:00.004Z,94
2023-11-05T03:41:06.265Z,94
2023-11-05T03:42:11.560Z,94
2023-11-05T03:43:17.848Z,94
2023-11-05T03:44:24.101Z,94
2023-11-05T03:45:30.380Z,94
2023-11-05T03:46:36.655Z,94
2023-11-05T03:47:42.922Z,93.5
2023-11-05T03:48:49.200Z,93.5
2023-11-05T03:49:55.469Z,93.5
2023-11-05T03:51:01.737Z,93.5
2023-11-05T03:52:08.004Z,93.5
2023-11-05T03:53:14.297Z,93.5
2023-11-05T03:54:20.560Z,94
2023-11-05T03:55:26.822Z,94
2023-11-05T03:56:32.135Z,94
2023-11-05T03:57:38.418Z,94
2023-11-05T03:58:44.667Z,94
2023-11-05T03:59:51.020Z,94.5
2023-11-05T04:00:57.212Z,94.5
2023-11-05T04:02:03.483Z,94.5
2023-11-05T04:03:09.750Z,94.5
2023-11-05T04:04:16.022Z,94.5
2023-11-05T04:05:22.356Z,95
2023-11-05T04:06:28.569Z,95.5
2023-11-05T04:07:34.850Z,95.5
2023-11-05T04:08:41.128Z,95.5
2023-11-05T04:09:47.389Z,95.5
2023-11-05T04:10:52.711Z,95.5
2023-11-05T04:11:58.972Z,95
2023-11-05T04:13:05.229Z,95.5
2023-11-05T04:14:11.499Z,95.5
2023-11-05T04:15:17.761Z,95.5
2023-11-05T04:16:24.031Z,95.5
2023-11-05T04:17:30.360Z,95.5
2023-11-05T04:18:36.584Z,95.5
2023-11-05T04:19:42.846Z,95
2023-11-05T04:20:49.137Z,95
2023-11-05T04:21:55.531Z,95.5
2023-11-05T04:23:01.670Z,95.5
2023-11-05T04:24:07.938Z,95.5
2023-11-05T04:25:13.244Z,95.5
2023-11-05T04:26:19.515Z,95.5
2023-11-05T04:27:25.769Z,96
2023-11-05T04:28:32.042Z,96
2023-11-05T04:29:38.377Z,96
2023-11-05T04:30:44.598Z,96
2023-11-05T04:31:50.912Z,96
2023-11-05T04:32:57.135Z,96
2023-11-05T04:34:03.404Z,96.5
2023-11-05T04:35:09.690Z,96.5
2023-11-05T04:36:15.948Z,96.5
2023-11-05T04:37:22.257Z,96.5
2023-11-05T04:38:28.509Z,96.5
2023-11-05T04:39:33.785Z,96.5
2023-11-05T04:40:39.080Z,96.5
2023-11-05T04:41:45.399Z,96.5
2023-11-05T04:42:51.622Z,96.5
2023-11-05T04:43:57.888Z,96.5
2023-11-05T04:45:04.161Z,96.5
2023-11-05T04:46:10.447Z,96.5
2023-11-05T04:47:16.710Z,96.5
2023-11-05T04:48:23.008Z,96.5
2023-11-05T04:49:29.247Z,96.5
2023-11-05T04:50:35.529Z,96.5
2023-11-05T04:51:41.795Z,96.5
2023-11-05T04:52:48.071Z,96.5
2023-11-05T04:53:54.345Z,96.5
2023-11-05T04:55:00.614Z,96.5
2023-11-05T04:56:05.907Z,96.5
2023-11-05T04:57:12.170Z,97
2023-11-05T04:58:18.439Z,97
2023-11-05T04:59:24.716Z,97
2023-11-05T05:00:30.998Z,97
2023-11-05T05:01:37.269Z,97
2023-11-05T05:02:43.546Z,97
2023-11-05T05:03:49.812Z,97
2023-11-05T05:04:56.077Z,97
2023-11-05T05:06:02.349Z,97
2023-11-05T05:07:08.631Z,96.5
2023-11-05T05:08:14.926Z,96.5
2023-11-05T05:09:21.170Z,96.5
2023-11-05T05:10:27.525Z,97
2023-11-05T05:11:32.775Z,97
2023-11-05T05:12:39.046Z,97
2023-11-05T05:13:45.321Z,97
2023-11-05T05:14:51.626Z,97
2023-11-05T05:15:57.827Z,97
2023-11-05T05:17:04.112Z,97
2023-11-05T05:18:10.376Z,97
2023-11-05T05:19:16.663Z,97
2023-11-05T05:20:22.910Z,97
2023-11-05T05:21:29.189Z,97
2023-11-05T05:22:35.459Z,97
2023-11-05T05:23:41.726Z,97
2023-11-05T05:24:48.013Z,97
2023-11-05T05:25:53.407Z,97.5
2023-11-05T05:26:59.565Z,97.5
2023-11-05T05:28:05.885Z,97.5
2023-11-05T05:29:12.098Z,97.5
2023-11-05T05:30:18.471Z,97.5
2023-11-05T05:31:24.651Z,97.5
2023-11-05T05:32:30.919Z,97.5
2023-11-05T05:33:37.196Z,97.5
2023-11-05T05:34:43.536Z,97.5
2023-11-05T05:35:49.758Z,97.5
2023-11-05T05:36:56.121Z,97.5
2023-11-05T05:38:02.283Z,98
2023-11-05T05:39:08.558Z,97.5
2023-11-05T05:40:13.834Z,97.5
2023-11-05T05:41:20.129Z,97.5
2023-11-05T05:42:25.409Z,97.5
2023-11-05T05:43:30.708Z,97.5
2023-11-05T05:44:36.989Z,97.5
2023-11-05T05:45:43.246Z,97.5
2023-11-05T05:46:49.528Z,97.5
2023-11-05T05:47:55.805Z,97.5
2023-11-05T05:49:02.072Z,97.5
2023-11-05T05:50:08.348Z,97.5
2023-11-05T05:51:14.618Z,97.5
2023-11-05T05:52:20.891Z,97.5
2023-11-05T05:53:27.156Z,97.5
2023-11-05T05:54:33.430Z,97.5
2023-11-05T05:55:39.703Z,97.5
2023-11-05T05:56:45.992Z,97.5
2023-11-05T05:57:51.255Z,97
2023-11-05T05:58:57.539Z,97
2023-11-05T06:00:03.802Z,97
2023-11-05T06:01:10.082Z,97
2023-11-05T06:02:16.344Z,97
2023-11-05T06:03:22.635Z,95.5
2023-11-05T06:04:28.911Z,94.5
2023-11-05T06:05:35.167Z,94
2023-11-05T06:06:41.453Z,93.5
2023-11-05T06:07:47.786Z,93
2023-11-05T06:08:53.987Z,92.5
2023-11-05T06:10:00.315Z,92.5
2023-11-05T06:11:06.527Z,92
2023-11-05T06:12:11.819Z,92
2023-11-05T06:13:18.092Z,92
2023-11-05T06:14:24.363Z,92
2023-11-05T06:15:30.631Z,92
2023-11-05T06:16:36.913Z,92
2023-11-05T06:17:43.181Z,92
2023-11-05T06:18:49.461Z,92
2023-11-05T06:19:55.737Z,92
2023-11-05T06:21:02.016Z,92
2023-11-05T06:22:08.368Z,92
2023-11-05T06:23:14.550Z,92
2023-11-05T06:24:20.817Z,92
2023-11-05T06:25:27.087Z,92
2023-11-05T06:26:32.370Z,92
2023-11-05T06:27:38.649Z,92
2023-11-05T06:28:44.918Z,91.5
2023-11-05T06:29:51.200Z,91.5
2023-11-05T06:30:57.465Z,92
2023-11-05T06:32:03.743Z,91
2023-11-05T06:33:10.028Z,90.5
2023-11-05T06:34:16.281Z,90.5
2023-11-05T06:35:22.563Z,90
2023-11-05T06:36:28.827Z,90
2023-11-05T06:37:35.103Z,90.5
2023-11-05T06:38:41.369Z,90.5
2023-11-05T06:39:47.669Z,90
2023-11-05T06:40:52.942Z,90
2023-11-05T06:41:59.278Z,90
2023-11-05T06:43:05.484Z,89.5
2023-11-05T06:44:11.748Z,89.5
2023-11-05T06:45:18.055Z,89
2023-11-05T06:46:24.295Z,89
2023-11-05T06:47:30.585Z,89
2023-11-05T06:48:36.855Z,88.5
2023-11-05T06:49:43.104Z,88.5
2023-11-05T06:50:49.385Z,88.5
2023-11-05T06:51:55.647Z,89
2023-11-05T06:53:01.925Z,89
2023-11-05T06:54:08.198Z,89
2023-11-05T06:55:13.479Z,89
2023-11-05T06:56:19.774Z,88.5
2023-11-05T06:57:26.046Z,88.5
2023-11-05T06:58:32.318Z,88
2023-11-05T06:59:38.579Z,88
2023-11-05T07:00:44.935Z,88
2023-11-05T07:01:51.133Z,88
2023-11-05T07:02:57.400Z,88.5
2023-11-05T07:04:03.669Z,88.5
2023-11-05T07:05:09.945Z,88
2023-11-05T07:06:16.211Z,88.5
2023-11-05T07:07:22.483Z,88.5
2023-11-05T07:08:28.758Z,88
2023-11-05T07:09:34.049Z,88
2023-11-05T07:10:40.320Z,88
2023-11-05T07:11:46.593Z,87.5
2023-11-05T07:12:52.976Z,87.5
2023-11-05T07:13:59.131Z,87
2023-11-05T07:15:05.422Z,87.5
2023-11-05T07:16:11.739Z,87
2023-11-05T07:17:17.948Z,86.5
2023-11-05T07:18:24.225Z,86.5
2023-11-05T07:19:30.495Z,86
2023-11-05T07:20:36.758Z,86.5
2023-11-05T07:21:43.046Z,86
2023-11-05T07:22:49.317Z,86
2023-11-05T07:23:54.605Z,85.5
2023-11-05T07:25:00.868Z,83
2023-11-05T07:26:07.139Z,82
2023-11-05T07:27:13.420Z,80
2023-11-05T07:28:19.688Z,79
2023-11-05T07:29:25.964Z,80.5
2023-11-05T07:30:32.268Z,78.5
2023-11-05T07:31:38.504Z,78
2023-11-05T07:32:44.777Z,78
2023-11-05T07:33:51.076Z,77.5
2023-11-05T07:34:57.322Z,77.5
2023-11-05T07:36:03.627Z,77
2023-11-05T07:37:09.871Z,77.5
2023-11-05T07:38:15.159Z,77
2023-11-05T07:39:21.431Z,78
2023-11-05T07:40:27.694Z,77
2023-11-05T07:41:33.977Z,77.5
2023-11-05T07:42:40.245Z,76.5
2023-11-05T07:43:46.517Z,78
2023-11-05T07:44:52.791Z,78.5
2023-11-05T07:45:59.051Z,79
2023-11-05T07:47:04.365Z,78.5
2023-11-05T07:48:09.660Z,77.5
2023-11-05T07:49:14.941Z,77.5
2023-11-05T07:50:21.216Z,78
2023-11-05T07:51:27.494Z,77.5
2023-11-05T07:52:33.773Z,77.5
2023-11-05T07:53:40.068Z,78.5
2023-11-05T07:54:46.315Z,78.5
2023-11-05T07:55:52.573Z,77.5
2023-11-05T07:56:58.853Z,77
2023-11-05T07:58:05.113Z,78
2023-11-05T07:59:11.396Z,77
2023-11-05T08:00:17.654Z,77.5
2023-11-05T08:01:23.929Z,78.5
2023-11-05T08:02:30.213Z,77.5
2023-11-05T08:03:36.486Z,77
2023-11-05T08:04:41.801Z,77.5
2023-11-05T08:05:48.039Z,77.5
2023-11-05T08:06:54.353Z,77.5
2023-11-05T08:08:00.589Z,77
2023-11-05T08:09:06.882Z,76.5
2023-11-05T08:10:12.160Z,76
2023-11-05T08:11:17.459Z,77
2023-11-05T08:12:23.819Z,76.5
2023-11-05T08:13:29.979Z,78
2023-11-05T08:14:36.256Z,76.5
2023-11-05T08:15:42.526Z,77
2023-11-05T08:16:48.818Z,76
2023-11-05T08:17:55.115Z,76
2023-11-05T08:19:01.348Z,76
2023-11-05T08:20:07.628Z,76.5
2023-11-05T08:21:13.909Z,76.5
2023-11-05T08:22:19.187Z,76
2023-11-05T08:23:25.464Z,76.5
2023-11-05T08:24:31.732Z,76.5
2023-11-05T08:25:37.998Z,76
2023-11-05T08:26:44.277Z,77
2023-11-05T08:27:50.550Z,78
2023-11-05T08:28:56.821Z,77.5
2023-11-05T08:30:03.093Z,77.5
2023-11-05T08:31:09.419Z,78
2023-11-05T08:32:15.638Z,78.5
2023-11-05T08:33:21.951Z,77.5
2023-11-05T08:34:28.188Z,77.5
2023-11-05T08:35:34.456Z,77.5
2023-11-05T08:36:39.790Z,78.5
2023-11-05T08:37:46.138Z,78
2023-11-05T08:38:52.281Z,78
2023-11-05T08:39:58.559Z,77
2023-11-05T08:41:04.821Z,78.5
2023-11-05T08:42:11.108Z,78
2023-11-05T08:43:17.380Z,77.5
2023-11-05T08:44:23.686Z,77.5
2023-11-05T08:45:29.918Z,77.5
2023-11-05T08:46:36.190Z,78
2023-11-05T08:47:42.475Z,78
2023-11-05T08:48:48.725Z,77.5
2023-11-05T08:49:55.006Z,78.5
2023-11-05T08:51:00.295Z,79
2023-11-05T08:52:06.567Z,78
2023-11-05T08:53:12.886Z,79
2023-11-05T08:54:19.103Z,78
2023-11-05T08:55:25.382Z,78.5
2023-11-05T08:56:31.648Z,79.5
2023-11-05T08:57:37.928Z,79
2023-11-05T08:58:44.207Z,79.5
2023-11-05T08:59:50.581Z,79.5
2023-11-05T09:00:56.763Z,78.5
2023-11-05T09:02:03.049Z,78.5
2023-11-05T09:03:09.280Z,79.5
2023-11-05T09:04:15.560Z,78.5
2023-11-05T09:05:20.854Z,78.5
2023-11-05T09:06:27.173Z,79
2023-11-05T09:07:33.389Z,79
2023-11-05T09:08:39.660Z,78.5
2023-11-05T09:09:45.941Z,78
2023-11-05T09:10:52.293Z,78.5
2023-11-05T09:11:58.483Z,78.5
2023-11-05T09:13:04.754Z,78.5
2023-11-05T09:14:11.021Z,79
2023-11-05T09:15:17.376Z,79
2023-11-05T09:16:23.568Z,78.5
2023-11-05T09:17:29.880Z,79
2023-11-05T09:18:36.099Z,80
2023-11-05T09:19:41.407Z,80.5
2023-11-05T09:20:47.753Z,79
2023-11-05T09:21:53.982Z,79
2023-11-05T09:23:00.243Z,79
2023-11-05T09:24:06.474Z,80
2023-11-05T09:25:12.766Z,79
2023-11-05T09:26:19.032Z,80
2023-11-05T09:27:25.350Z,79.5
2023-11-05T09:28:31.579Z,80
2023-11-05T09:29:37.870Z,79.5
2023-11-05T09:30:44.119Z,80
2023-11-05T09:31:50.387Z,80
2023-11-05T09:32:56.733Z,79.5
2023-11-05T09:34:01.974Z,80.5
2023-11-05T09:35:08.237Z,80.5
2023-11-05T09:36:14.493Z,80
2023-11-05T09:37:20.771Z,79.5
2023-11-05T09:38:27.046Z,80.5
2023-11-05T09:39:33.339Z,81
2023-11-05T09:40:39.670Z,80
2023-11-05T09:41:45.988Z,79.5
2023-11-05T09:42:52.131Z,79.5
2023-11-05T09:43:58.404Z,79.5
2023-11-05T09:45:04.670Z,79.5
2023-11-05T09:46:10.946Z,79.5
2023-11-05T09:47:17.218Z,80.5
2023-11-05T09:48:22.513Z,80.5
2023-11-05T09:49:28.870Z,80.5
2023-11-05T09:50:35.051Z,79.5
2023-11-05T09:51:40.395Z,81.5
2023-11-05T09:52:45.745Z,81
2023-11-05T09:53:51.912Z,80.5
2023-11-05T09:54:58.185Z,81.5
2023-11-05T09:56:04.452Z,80
2023-11-05T09:57:10.713Z,81.5
2023-11-05T09:58:17.000Z,80
2023-11-05T09:59:23.274Z,79
2023-11-05T10:00:29.548Z,79
2023-11-05T10:01:35.828Z,78
2023-11-05T10:02:42.084Z,78
2023-11-05T10:03:48.362Z,78
2023-11-05T10:04:54.632Z,77
2023-11-05T10:06:00.908Z,78
2023-11-05T10:07:06.185Z,78
2023-11-05T10:08:12.465Z,77
2023-11-05T10:09:18.739Z,77
2023-11-05T10:10:25.003Z,77.5
2023-11-05T10:11:31.273Z,77.5
2023-11-05T10:12:37.554Z,78.5
2023-11-05T10:13:43.836Z,79
2023-11-05T10:14:50.095Z,80
2023-11-05T10:15:56.363Z,80.5
2023-11-05T10:17:02.653Z,80.5
2023-11-05T10:18:08.912Z,81.5
2023-11-05T10:19:15.173Z,83
2023-11-05T10:20:21.459Z,83.5
2023-11-05T10:21:26.751Z,82
2023-11-05T10:22:33.013Z,82
2023-11-05T10:23:39.279Z,81.5
2023-11-05T10:24:45.561Z,80.5
2023-11-05T10:25:51.835Z,80.5
2023-11-05T10:26:58.101Z,81.5
2023-11-05T10:28:04.384Z,82
2023-11-05T10:29:10.650Z,82
2023-11-05T10:30:16.924Z,81.5
2023-11-05T10:31:23.191Z,81.5
2023-11-05T10:32:29.463Z,81
2023-11-05T10:33:35.759Z,83
2023-11-05T10:34:42.131Z,81.5
2023-11-05T10:35:47.302Z,82
2023-11-05T10:36:53.562Z,82
2023-11-05T10:37:59.849Z,82
2023-11-05T10:39:06.117Z,82.5
2023-11-05T10:40:11.407Z,82.5
2023-11-05T10:41:16.716Z,82.5
2023-11-05T10:42:22.007Z,83
2023-11-05T10:43:28.279Z,83
2023-11-05T10:44:34.555Z,83
2023-11-05T10:45:40.808Z,82.5
2023-11-05T10:46:47.086Z,81
2023-11-05T10:47:53.357Z,82
2023-11-05T10:48:59.629Z,80.5
2023-11-05T10:50:05.908Z,81
2023-11-05T10:51:12.174Z,79
2023-11-05T10:52:18.449Z,80.5
2023-11-05T10:53:24.720Z,80.5
2023-11-05T10:54:30.989Z,80.5
2023-11-05T10:55:37.257Z,78.5
2023-11-05T10:56:42.552Z,80
2023-11-05T10:57:48.815Z,79.5
2023-11-05T10:58:55.179Z,81
2023-11-05T11:00:01.426Z,80
2023-11-05T11:01:07.648Z,80.5
2023-11-05T11:02:13.919Z,80
2023-11-05T11:03:19.209Z,79
2023-11-05T11:04:24.505Z,80
2023-11-05T11:05:30.779Z,79.5
2023-11-05T11:06:37.096Z,79.5
2023-11-05T11:07:43.316Z,79.5
2023-11-05T11:08:49.648Z,80.5
2023-11-05T11:09:55.858Z,81
2023-11-05T11:11:02.117Z,82.5
2023-11-05T11:12:08.398Z,82.5
2023-11-05T11:13:14.854Z,83.5
2023-11-05T11:14:21.130Z,83
2023-11-05T11:15:27.223Z,84.5
2023-11-05T11:16:33.630Z,84.5
2023-11-05T11:17:40.031Z,84.5
2023-11-05T11:18:45.386Z,85
2023-11-05T11:19:51.613Z,83.5
2023-11-05T11:20:57.733Z,84.5
2023-11-05T11:22:04.111Z,83.5
2023-11-05T11:23:10.489Z,83
2023-11-05T11:24:16.591Z,83
2023-11-05T11:25:22.859Z,83.5
2023-11-05T11:26:29.246Z,84
2023-11-05T11:27:35.626Z,83.5
2023-11-05T11:28:41.919Z,83.5
2023-11-05T11:29:47.957Z,82
2023-11-05T11:30:54.226Z,82
2023-11-05T11:32:00.434Z,83
2023-11-05T11:33:05.866Z,83
2023-11-05T11:34:12.096Z,82.5
2023-11-05T11:35:18.283Z,82.5
2023-11-05T11:36:24.623Z,81.5
2023-11-05T11:37:30.703Z,82
2023-11-05T11:38:37.275Z,80.5
2023-11-05T11:39:43.474Z,81
2023-11-05T11:40:49.816Z,81
2023-11-05T11:41:56.074Z,80
2023-11-05T11:43:02.138Z,80
2023-11-05T11:44:08.626Z,82
2023-11-05T11:45:14.592Z,82.5
2023-11-05T11:46:21.211Z,82
2023-11-05T11:47:27.406Z,80.5
2023-11-05T11:48:32.799Z,81
2023-11-05T11:49:38.826Z,81
2023-11-05T11:50:45.305Z,80.5
2023-11-05T11:51:51.371Z,81
2023-11-05T11:52:57.754Z,83
2023-11-05T11:54:04.161Z,81
2023-11-05T11:55:10.299Z,81
2023-11-05T11:56:16.586Z,83
2023-11-05T11:57:22.698Z,82.5
2023-11-05T11:58:29.134Z,83
2023-11-05T11:59:35.365Z,82.5
2023-11-05T12:00:41.714Z,82.5
2023-11-05T12:01:47.942Z,83
2023-11-05T12:02:53.323Z,82.5
2023-11-05T12:03:59.257Z,83.5
2023-11-05T12:05:04.842Z,81.5
2023-11-05T12:06:11.186Z,82.5
2023-11-05T12:07:17.425Z,81
2023-11-05T12:08:23.430Z,81.5
2023-11-05T12:09:29.643Z,82
2023-11-05T12:10:35.908Z,83.5
2023-11-05T12:11:42.189Z,83.5
2023-11-05T12:12:48.465Z,83
2023-11-05T12:13:54.730Z,82
2023-11-05T12:15:01.064Z,84
2023-11-05T12:16:07.591Z,83.5
2023-11-05T12:17:13.807Z,82.5
2023-11-05T12:18:19.828Z,84
2023-11-05T12:19:25.804Z,82.5
2023-11-05T12:20:31.469Z,84.5
2023-11-05T12:21:37.635Z,84
2023-11-05T12:22:43.918Z,85
2023-11-05T12:23:50.186Z,87.5
2023-11-05T12:24:56.462Z,87.5
2023-11-05T12:26:02.730Z,88
2023-11-05T12:27:09.006Z,88
2023-11-05T12:28:15.288Z,87.5
2023-11-05T12:29:21.551Z,88.5
2023-11-05T12:30:27.822Z,89
2023-11-05T12:31:34.087Z,89.5
2023-11-05T12:32:40.362Z,88.5
2023-11-05T12:33:45.655Z,89
2023-11-05T12:34:51.931Z,89.5
2023-11-05T12:35:58.200Z,89.5
2023-11-05T12:37:04.479Z,90
2023-11-05T12:38:10.730Z,89.5
2023-11-05T12:39:17.018Z,89.5
2023-11-05T12:40:23.290Z,91.5
2023-11-05T12:41:29.560Z,90
2023-11-05T12:42:35.829Z,91.5
2023-11-05T12:43:42.097Z,90
2023-11-05T12:44:48.371Z,91
2023-11-05T12:45:54.650Z,92.5
2023-11-05T12:47:00.927Z,90.5
2023-11-05T12:48:06.211Z,90.5
2023-11-05T12:49:12.478Z,91.5
2023-11-05T12:50:18.764Z,91.5
2023-11-05T12:51:25.030Z,91
2023-11-05T12:52:31.300Z,89.5
2023-11-05T12:53:37.575Z,91
2023-11-05T12:54:43.844Z,90.5
2023-11-05T12:55:50.126Z,90
2023-11-05T12:56:56.380Z,89.5
2023-11-05T12:58:02.661Z,88.5
2023-11-05T12:59:08.939Z,89
2023-11-05T13:00:15.197Z,91
2023-11-05T13:01:21.476Z,90.5
2023-11-05T13:02:26.764Z,88.5
2023-11-05T13:03:33.031Z,89
2023-11-05T13:04:39.298Z,90.5
2023-11-05T13:05:45.579Z,90
2023-11-05T13:06:51.849Z,89.5
2023-11-05T13:07:58.138Z,89
2023-11-05T13:09:03.448Z,90
2023-11-05T13:10:08.722Z,90.5
2023-11-05T13:11:14.997Z,90.5
2023-11-05T13:12:20.293Z,90
2023-11-05T13:13:25.566Z,92.5
2023-11-05T13:14:31.857Z,91.5
2023-11-05T13:15:38.124Z,92
2023-11-05T13:16:44.402Z,92.5
2023-11-05T13:17:50.670Z,90.5
2023-11-05T13:18:56.940Z,91.5
2023-11-05T13:20:03.209Z,91
2023-11-05T13:21:09.483Z,92.5
2023-11-05T13:22:15.756Z,91.5
2023-11-05T13:23:22.021Z,93.5
2023-11-05T13:24:28.295Z,93.5
2023-11-05T13:25:34.565Z,95
2023-11-05T13:26:40.845Z,96
2023-11-05T13:27:46.146Z,96.5
2023-11-05T13:28:52.397Z,96.5
2023-11-05T13:29:58.688Z,97.5
2023-11-05T13:31:04.944Z,98
2023-11-05T13:32:11.210Z,97.5
2023-11-05T13:33:17.496Z,98.5
2023-11-05T13:34:23.771Z,98.5
2023-11-05T13:35:30.102Z,98
2023-11-05T13:36:36.304Z,98
2023-11-05T13:37:42.581Z,97.5
2023-11-05T13:38:48.858Z,98.5
2023-11-05T13:39:55.117Z,99
2023-11-05T13:41:01.435Z,98.5
2023-11-05T13:42:06.679Z,99
2023-11-05T13:43:12.953Z,99
2023-11-05T13:44:19.225Z,98.5
2023-11-05T13:45:25.504Z,99
2023-11-05T13:46:31.874Z,99
2023-11-05T13:47:38.056Z,99.5
2023-11-05T13:48:44.318Z,99.5
2023-11-05T13:49:50.588Z,99.5
2023-11-05T13:50:56.854Z,99.5
2023-11-05T13:52:03.124Z,99.5
2023-11-05T13:53:09.412Z,99
2023-11-05T13:54:15.680Z,99.5
2023-11-05T13:55:21.947Z,99.5
2023-11-05T13:56:27.240Z,99.5
2023-11-05T13:57:33.502Z,99.5
2023-11-05T13:58:39.779Z,99.5
2023-11-05T13:59:46.048Z,99.5
2023-11-05T14:00:52.327Z,99.5
2023-11-05T14:01:58.601Z,99.5
2023-11-05T14:03:04.917Z,99.5
2023-11-05T14:04:11.218Z,98.5
2023-11-05T14:05:17.403Z,97
2023-11-05T14:06:23.680Z,97
2023-11-05T14:07:29.952Z,98
2023-11-05T14:08:36.228Z,96.5
2023-11-05T14:09:42.502Z,96.5
2023-11-05T14:10:47.785Z,97
2023-11-05T14:11:54.056Z,96.5
2023-11-05T14:13:00.342Z,98
2023-11-05T14:14:06.602Z,98
2023-11-05T14:15:12.875Z,97.5
2023-11-05T14:16:19.147Z,98.5
2023-11-05T14:17:25.409Z,98
2023-11-05T14:18:31.686Z,98.5
2023-11-05T14:19:37.958Z,99
2023-11-05T14:20:44.250Z,99.5
2023-11-05T14:21:50.504Z,99.5
2023-11-05T14:22:56.774Z,99.5
2023-11-05T14:24:03.052Z,99.5
2023-11-05T14:25:08.341Z,99.5
2023-11-05T14:26:14.614Z,99.5
2023-11-05T14:27:20.877Z,99.5
2023-11-05T14:28:27.145Z,99.5
2023-11-05T14:29:33.430Z,99.5
2023-11-05T14:30:39.703Z,99.5
2023-11-05T14:31:46.014Z,99.5
2023-11-05T14:32:52.232Z,99
2023-11-05T14:33:58.522Z,99.5
2023-11-05T14:35:04.779Z,99.5
2023-11-05T14:36:11.054Z,99
2023-11-05T14:37:17.331Z,99
2023-11-05T14:38:23.601Z,99.5
2023-11-05T14:39:28.890Z,99.5
2023-11-05T14:40:35.164Z,99.5
2023-11-05T14:41:41.454Z,98.5
2023-11-05T14:42:47.704Z,98.5
2023-11-05T14:43:53.979Z,99
2023-11-05T14:45:00.242Z,98.5
2023-11-05T14:46:06.517Z,97.5
2023-11-05T14:47:12.802Z,97.5
2023-11-05T14:48:19.064Z,98
2023-11-05T14:49:25.384Z,97.5
2023-11-05T14:50:31.657Z,98
2023-11-05T14:51:37.882Z,98
2023-11-05T14:52:44.150Z,98
2023-11-05T14:53:49.439Z,96.5
2023-11-05T14:54:55.712Z,97.5
2023-11-05T14:56:01.990Z,96
2023-11-05T14:57:08.263Z,96
2023-11-05T14:58:14.527Z,96
2023-11-05T14:59:20.802Z,95
2023-11-05T15:00:27.069Z,95
2023-11-05T15:01:33.357Z,94
2023-11-05T15:02:39.618Z,95
2023-11-05T15:03:45.886Z,95.5
2023-11-05T15:04:52.166Z,94.5
2023-11-05T15:05:58.434Z,94.5
2023-11-05T15:07:04.715Z,93.5
2023-11-05T15:08:09.991Z,95
2023-11-05T15:09:16.254Z,95.5